Bethel, CT (06801)

4:26 PM EDT on April 28, 2015 (GMT -0400)
Plumtrees | | Change Station
CLOSE
Current Station
Personal Weather Station
Location: Bethel, CT
Elevation: 420 ft
Nearby Weather Stations
Active Advisory: Special Statement

Elev 420 ft 41.39 °N, 73.39 °W | Updated 7 minutes ago

Clear
Clear
66.2 °F
Feels Like 66.2 °F
N
0.0
Wind Variable Wind from North
Gusts 0.0 mph

Today
High -- | Low -- °F
--% Chance of Precip.
Yesterday
High -- | Low -- °F
Precip. -- in
5:55 AM 7:47 PM
Waxing Gibbous, 76% visible
Pressure 29.73 in
Visibility 10.0 miles
Clouds Clear
Dew Point 35 °F
Humidity 32%
Rainfall 0.00 in
Snow Depth Not available.
UV 6 out of 12
Pollen 10.50 out of 12
Air Quality Not available.
Flu Activity Widespread
METAR KDXR 281953Z 34015G23KT 10SM CLR 17/M02 A2973 RMK AO2 PK WND 02026/1910 SLP066 T01721017

More Conditions Fewer Conditions

Pressure 29.73 in
Visibility 10.0 miles
Clouds Clear
Dew Point 35 °F
Humidity 32%
Rainfall 0.00 in
Snow Depth Not available.
UV 6 out of 12
Pollen 10.50 out of 12
Air Quality Not available.
Flu Activity Widespread
METAR KDXR 281953Z 34015G23KT 10SM CLR 17/M02 A2973 RMK AO2 PK WND 02026/1910 SLP066 T01721017

More Conditions Fewer Conditions

10-Day Weather Forecast

Almanac

Astronomy

Apr. 28, 2015 Rise Set
Actual Time
Civil Twilight
Nautical Twilight
Astronomical Twilight
Moon
Length of Visible Light
Length of Day
Tomorrow will be .
, % of the Moon is Illuminated

Today's Extremes

State Highs State Lows

Community

WunderPhotos

Upload Photos

1,817,751 photos uploaded!

WunderBlogs® & News

Nearby

Air Quality

  Air Quality AQ Index Pollutant
Not available.

Snow Depth

Station Depth Elevation

Earthquake Activity

City Distance Mag. Time & Date
Minimum magnitude displayed is 2.5.

Coastal Water Temperatures

Place Temperature

Stations

Nearby Weather Stations

Station Location Temp. Windchill Dew Point Humidity Wind Precip. Elev Updated Type
                   
Special Statement
Statement as of 9:34 AM EDT on April 28, 2015

... Gusty winds and dry conditions today...

North to northwest winds will gust up to 20 to 25 mph today...
while relative humidities fall to 30 to 35 percent. This will
increase the risk for growth and spread of any fires
that develop.